Haines, AK

5:26 PM AKST on November 22, 2014 (GMT -0900)
Haines | Change Station
CLOSE
Current Station
Airport
Location: Haines,
Elevation: 16 ft
Nearby Weather Stations

Elev 16 ft 59.24 °N, 135.51 °W | Updated 32 minutes ago

Light Rain
Light Rain
37 °F
Feels Like 32 °F
N
6
Wind Variable Wind from Variable

Today
High -- | Low -- °F
--% Chance of Precip.
Yesterday
High -- | Low -- °F
Precip. -- in
8:12 AM 3:23 PM
New Moon, 0% visible
Pressure 29.40 in
Visibility 10.0 miles
Clouds Overcast 900 ft
Windchill 32 °F
Dew Point 35 °F
Humidity 93%
Rainfall 0.02 in
Snow Depth Not available.
UV 0 out of 12
Pollen Not available.
Air Quality Not available.
Flu Activity Not available.
METAR PAHN 230154Z AUTO VRB05KT 10SM -RA OVC009 03/02 A2939 RMK AO2 RAB47 SLP954 P0000 T00280017 TSNO

More Conditions Fewer Conditions

Pressure 29.40 in
Visibility 10.0 miles
Clouds Overcast 900 ft
Windchill 32 °F
Dew Point 35 °F
Humidity 93%
Rainfall 0.02 in
Snow Depth Not available.
UV 0 out of 12
Pollen Not available.
Air Quality Not available.
Flu Activity Not available.
METAR PAHN 230154Z AUTO VRB05KT 10SM -RA OVC009 03/02 A2939 RMK AO2 RAB47 SLP954 P0000 T00280017 TSNO

More Conditions Fewer Conditions

10-Day Weather Forecast

Almanac

Astronomy

Nov. 22, 2014 Rise Set
Actual Time
Civil Twilight
Nautical Twilight
Astronomical Twilight
Moon
Length of Visible Light
Length of Day
Tomorrow will be .
, % of the Moon is Illuminated

Today's Extremes

State Highs State Lows

Community

WunderPhotos

Upload Photos

1,772,973 photos uploaded!

WunderBlogs® & News

Nearby

Air Quality

  Air Quality AQ Index Pollutant
Not available.

Snow Depth

Station Depth Elevation

Earthquake Activity

City Distance Mag. Time & Date
Minimum magnitude displayed is 2.5.

Coastal Water Temperatures

Place Temperature

Nearby Weather Stations